createdAt,value
2019-05-02T00:02:15.019Z,76.71
2019-05-02T00:04:51.014Z,76.72
2019-05-02T00:07:24.216Z,76.99
2019-05-02T00:09:56.599Z,77.10
2019-05-02T00:12:29.179Z,77.03
2019-05-02T00:15:09.180Z,77.04
2019-05-02T00:17:41.967Z,77.06
2019-05-02T00:20:15.892Z,77.04
2019-05-02T00:22:52.184Z,76.60
2019-05-02T00:25:23.947Z,75.74
2019-05-02T00:27:55.874Z,76.66
2019-05-02T00:30:29.997Z,77.45
2019-05-02T00:33:02.690Z,77.64
2019-05-02T00:35:34.635Z,77.66
2019-05-02T00:38:08.678Z,77.81
2019-05-02T00:40:40.637Z,78.08
2019-05-02T00:43:12.616Z,78.71
2019-05-02T00:45:45.675Z,78.95
2019-05-02T00:48:29.450Z,78.78
2019-05-02T00:51:03.303Z,78.39
2019-05-02T00:53:35.393Z,78.17
2019-05-02T00:56:09.078Z,78.23
2019-05-02T00:58:44.236Z,78.32
2019-05-02T01:01:37.809Z,78.56
2019-05-02T01:04:29.041Z,78.40
2019-05-02T01:07:01.599Z,78.18
2019-05-02T01:09:34.164Z,77.77
2019-05-02T01:12:08.460Z,77.40
2019-05-02T01:14:39.885Z,77.58
2019-05-02T01:17:11.836Z,77.19
2019-05-02T01:19:51.380Z,76.69
2019-05-02T01:22:23.786Z,75.97
2019-05-02T01:24:55.906Z,75.52
2019-05-02T01:27:46.759Z,74.94
2019-05-02T01:30:44.013Z,74.79
2019-05-02T01:33:26.067Z,74.54
2019-05-02T01:36:23.948Z,74.61
2019-05-02T01:39:02.875Z,74.79
2019-05-02T01:41:39.852Z,76.46
2019-05-02T01:44:13.145Z,77.29
2019-05-02T01:46:45.321Z,77.36
2019-05-02T01:49:21.825Z,77.24
2019-05-02T01:51:54.582Z,77.00
2019-05-02T01:54:26.803Z,76.63
2019-05-02T01:56:58.718Z,76.48
2019-05-02T01:59:33.970Z,75.91
2019-05-02T02:02:05.194Z,75.34
2019-05-02T02:04:37.464Z,74.68
2019-05-02T02:07:09.591Z,74.36
2019-05-02T02:09:43.898Z,73.78
2019-05-02T02:12:18.228Z,73.49
2019-05-02T02:14:53.627Z,73.12
2019-05-02T02:17:24.085Z,73.62
2019-05-02T02:20:00.912Z,75.46
2019-05-02T02:22:44.230Z,77.27
2019-05-02T02:25:36.240Z,78.58
2019-05-02T02:28:08.081Z,78.88
2019-05-02T02:30:40.134Z,79.40
2019-05-02T02:33:13.464Z,78.80
2019-05-02T02:35:50.344Z,77.89
2019-05-02T02:38:19.503Z,76.79
2019-05-02T02:40:51.656Z,76.18
2019-05-02T02:43:33.859Z,75.84
2019-05-02T02:46:16.295Z,75.95
2019-05-02T02:48:48.250Z,76.13
2019-05-02T02:51:23.603Z,76.28
2019-05-02T02:54:03.675Z,76.15
2019-05-02T02:56:34.512Z,76.20
2019-05-02T02:59:03.946Z,76.40
2019-05-02T03:01:35.981Z,76.67
2019-05-02T03:04:10.148Z,76.95
2019-05-02T03:06:44.850Z,77.24
2019-05-02T03:09:20.252Z,77.89
2019-05-02T03:12:09.017Z,78.40
2019-05-02T03:14:47.154Z,78.45
2019-05-02T03:17:25.351Z,78.36
2019-05-02T03:19:54.435Z,78.53
2019-05-02T03:22:34.762Z,79.02
2019-05-02T03:25:03.128Z,79.75
2019-05-02T03:27:37.403Z,80.37
2019-05-02T03:30:29.641Z,81.68
2019-05-02T03:33:02.687Z,82.72
2019-05-02T03:35:40.882Z,83.27
2019-05-02T03:37:55.400Z,83.87
2019-05-02T03:40:32.238Z,83.69
2019-05-02T03:43:01.660Z,83.73
2019-05-02T03:45:40.100Z,83.91
2019-05-02T03:48:07.529Z,83.54
2019-05-02T03:50:40.199Z,82.55
2019-05-02T03:53:17.701Z,82.04
2019-05-02T03:55:46.092Z,81.41
2019-05-02T03:58:20.935Z,81.10
2019-05-02T04:01:00.307Z,80.70
2019-05-02T04:03:27.142Z,79.95
2019-05-02T04:05:59.237Z,79.11
2019-05-02T04:08:33.562Z,79.33
2019-05-02T04:11:25.579Z,80.00
2019-05-02T04:13:58.043Z,79.87
2019-05-02T04:16:31.974Z,79.18
2019-05-02T04:19:05.297Z,78.62
2019-05-02T04:21:37.622Z,78.97
2019-05-02T04:24:15.001Z,79.41
2019-05-02T04:26:52.927Z,79.99
2019-05-02T04:29:24.578Z,80.43
2019-05-02T04:31:53.268Z,80.44
2019-05-02T04:34:25.299Z,80.49
2019-05-02T04:37:00.912Z,80.95
2019-05-02T04:39:31.010Z,80.79
2019-05-02T04:42:13.034Z,80.59
2019-05-02T04:44:46.319Z,80.93
2019-05-02T04:47:17.540Z,81.00
2019-05-02T04:49:51.508Z,79.86
2019-05-02T04:52:21.512Z,78.71
2019-05-02T04:55:08.398Z,78.80
2019-05-02T04:57:36.982Z,78.88
2019-05-02T05:00:08.631Z,78.72
2019-05-02T05:02:40.067Z,78.06
2019-05-02T05:05:19.443Z,77.18
2019-05-02T05:07:49.509Z,76.51
2019-05-02T05:10:21.766Z,75.98
2019-05-02T05:12:53.832Z,75.63
2019-05-02T05:15:37.145Z,75.53
2019-05-02T05:17:59.406Z,75.53
2019-05-02T05:20:31.402Z,75.74
2019-05-02T05:23:03.353Z,76.96
2019-05-02T05:25:40.322Z,78.71
2019-05-02T05:28:12.233Z,79.48
2019-05-02T05:30:49.182Z,80.29
2019-05-02T05:33:20.767Z,80.96
2019-05-02T05:35:52.835Z,81.38
2019-05-02T05:38:28.539Z,81.42
2019-05-02T05:41:02.981Z,80.91
2019-05-02T05:43:38.134Z,80.61
2019-05-02T05:46:13.144Z,80.05
2019-05-02T05:48:44.303Z,78.80
2019-05-02T05:51:20.438Z,76.80
2019-05-02T05:53:52.311Z,75.85
2019-05-02T05:56:23.450Z,76.88
2019-05-02T05:58:58.851Z,76.27
2019-05-02T06:01:34.674Z,75.83
2019-05-02T06:04:05.220Z,76.79
2019-05-02T06:06:38.759Z,76.52
2019-05-02T06:09:14.296Z,76.28
2019-05-02T06:11:46.333Z,75.91
2019-05-02T06:14:19.935Z,74.56
2019-05-02T06:16:53.183Z,72.13
2019-05-02T06:19:26.603Z,64.39
2019-05-02T06:21:59.151Z,56.20
2019-05-02T06:24:33.919Z,48.73
2019-05-02T06:27:05.275Z,43.32
2019-05-02T06:29:37.461Z,40.45
2019-05-02T06:32:14.029Z,38.17
2019-05-02T06:34:47.558Z,35.03
2019-05-02T06:37:20.461Z,33.55
2019-05-02T06:39:52.348Z,32.62
2019-05-02T06:42:32.722Z,32.02
2019-05-02T06:45:03.623Z,33.83
2019-05-02T06:47:35.950Z,31.90
2019-05-02T06:50:09.809Z,31.86
2019-05-02T06:52:41.729Z,31.18
2019-05-02T06:55:13.826Z,29.48
2019-05-02T06:57:51.813Z,29.49
2019-05-02T07:00:35.613Z,30.97
2019-05-02T07:03:10.319Z,31.50
2019-05-02T07:05:39.643Z,31.53
2019-05-02T07:08:39.546Z,33.08
2019-05-02T07:11:11.825Z,31.27
2019-05-02T07:13:43.958Z,31.17
2019-05-02T07:16:37.525Z,31.06
2019-05-02T07:19:01.417Z,32.90
2019-05-02T07:21:33.460Z,34.86
2019-05-02T07:24:07.196Z,34.58
2019-05-02T07:26:39.437Z,33.18
2019-05-02T07:29:17.056Z,32.94
2019-05-02T07:31:47.762Z,32.04
2019-05-02T07:34:21.612Z,32.16
2019-05-02T07:36:53.653Z,30.46
2019-05-02T07:39:25.640Z,30.00
2019-05-02T07:42:00.554Z,27.96
2019-05-02T07:44:34.662Z,27.25
2019-05-02T07:47:06.706Z,29.33
2019-05-02T07:49:38.760Z,31.27
2019-05-02T07:52:10.728Z,30.26
2019-05-02T07:54:42.744Z,29.91
2019-05-02T07:57:15.168Z,29.42
2019-05-02T07:59:49.888Z,27.03
2019-05-02T08:02:24.997Z,24.63
2019-05-02T08:04:56.094Z,21.72
2019-05-02T08:07:34.290Z,20.59
2019-05-02T08:10:01.922Z,19.87
2019-05-02T08:12:34.662Z,18.56
2019-05-02T08:15:13.061Z,20.00
2019-05-02T08:17:44.094Z,21.22
2019-05-02T08:20:19.353Z,19.86
2019-05-02T08:22:50.757Z,18.49
2019-05-02T08:25:24.480Z,18.10
2019-05-02T08:28:16.025Z,19.84
2019-05-02T08:30:52.275Z,16.87
2019-05-02T08:33:29.429Z,17.05
2019-05-02T08:35:58.841Z,17.55
2019-05-02T08:38:30.824Z,17.14
2019-05-02T08:41:02.823Z,18.32
2019-05-02T08:43:34.772Z,18.92
2019-05-02T08:46:09.536Z,18.92
2019-05-02T08:48:41.870Z,19.97
2019-05-02T08:51:14.681Z,20.56
2019-05-02T08:53:46.627Z,20.28
2019-05-02T08:56:21.366Z,19.78
2019-05-02T08:58:54.012Z,20.75
2019-05-02T09:01:34.929Z,19.79
2019-05-02T09:04:00.420Z,20.42
2019-05-02T09:06:32.351Z,19.82
2019-05-02T09:09:08.372Z,19.09
2019-05-02T09:11:41.527Z,19.09
2019-05-02T09:14:13.828Z,18.28
2019-05-02T09:16:46.193Z,19.20
2019-05-02T09:19:21.217Z,19.06
2019-05-02T09:21:53.592Z,19.01
2019-05-02T09:24:25.605Z,19.50
2019-05-02T09:26:59.506Z,20.38
2019-05-02T09:29:32.696Z,20.36
2019-05-02T09:32:05.094Z,19.91
2019-05-02T09:34:38.076Z,18.73
2019-05-02T09:37:12.091Z,18.12
2019-05-02T09:39:44.304Z,19.04
2019-05-02T09:42:19.108Z,19.69
2019-05-02T09:44:56.784Z,18.80
2019-05-02T09:47:33.271Z,19.50
2019-05-02T09:50:20.546Z,19.52
2019-05-02T09:52:52.558Z,19.48
2019-05-02T09:55:26.718Z,19.99
2019-05-02T09:58:02.483Z,19.74
2019-05-02T10:00:45.806Z,20.43
2019-05-02T10:03:18.214Z,20.28
2019-05-02T10:05:52.177Z,19.10
2019-05-02T10:08:26.158Z,19.35
2019-05-02T10:10:58.418Z,18.98
2019-05-02T10:13:32.129Z,18.10
2019-05-02T10:16:04.409Z,18.69
2019-05-02T10:18:36.433Z,18.69
2019-05-02T10:21:13.560Z,18.41
2019-05-02T10:23:42.833Z,19.49
2019-05-02T10:26:20.110Z,18.67
2019-05-02T10:28:50.671Z,18.11
2019-05-02T10:31:22.903Z,18.64
2019-05-02T10:33:54.870Z,18.80
2019-05-02T10:36:26.980Z,18.69
2019-05-02T10:38:59.452Z,18.53
2019-05-02T10:41:39.528Z,18.97
2019-05-02T10:44:05.891Z,18.83
2019-05-02T10:46:49.245Z,19.43
2019-05-02T10:49:26.447Z,20.01
2019-05-02T10:51:58.424Z,19.96
2019-05-02T10:54:36.183Z,19.40
2019-05-02T10:57:06.507Z,19.04
2019-05-02T10:59:38.457Z,19.29
2019-05-02T11:02:22.209Z,19.76
2019-05-02T11:04:59.051Z,18.93
2019-05-02T11:07:32.663Z,17.87
2019-05-02T11:10:06.872Z,16.97
2019-05-02T11:12:46.939Z,17.08
2019-05-02T11:15:38.591Z,17.60
2019-05-02T11:18:12.649Z,17.55
2019-05-02T11:20:44.497Z,18.69
2019-05-02T11:23:16.858Z,18.67
2019-05-02T11:25:48.990Z,18.21
2019-05-02T11:28:22.091Z,19.25
2019-05-02T11:30:57.019Z,19.88
2019-05-02T11:33:29.556Z,20.34
2019-05-02T11:36:02.544Z,21.28
2019-05-02T11:38:48.222Z,21.22
2019-05-02T11:41:08.813Z,21.30
2019-05-02T11:43:42.389Z,20.58
2019-05-02T11:46:14.449Z,22.01
2019-05-02T11:48:55.651Z,22.90
2019-05-02T11:51:22.678Z,24.09
2019-05-02T11:53:59.440Z,25.93
2019-05-02T11:56:32.804Z,26.45
2019-05-02T11:59:06.011Z,28.74
2019-05-02T12:01:39.804Z,29.07
2019-05-02T12:04:16.600Z,28.80
2019-05-02T12:06:50.083Z,28.95
2019-05-02T12:09:19.870Z,29.52
2019-05-02T12:11:56.536Z,29.49
2019-05-02T12:14:27.450Z,29.23
2019-05-02T12:16:59.329Z,28.65
2019-05-02T12:19:32.222Z,28.82
2019-05-02T12:22:07.127Z,28.32
2019-05-02T12:24:40.897Z,28.51
2019-05-02T12:27:11.899Z,28.56
2019-05-02T12:29:44.095Z,28.76
2019-05-02T12:32:17.963Z,28.84
2019-05-02T12:34:50.000Z,29.06
2019-05-02T12:37:22.167Z,29.56
2019-05-02T12:39:54.173Z,28.90
2019-05-02T12:42:26.567Z,28.59
2019-05-02T12:44:58.906Z,28.81
2019-05-02T12:47:31.939Z,27.60
2019-05-02T12:50:04.579Z,28.81
2019-05-02T12:52:36.709Z,28.81
2019-05-02T12:55:08.941Z,28.63
2019-05-02T12:57:42.850Z,28.98
2019-05-02T13:00:18.472Z,29.04
2019-05-02T13:03:11.757Z,29.71
2019-05-02T13:05:45.911Z,29.36
2019-05-02T13:08:18.188Z,29.64
2019-05-02T13:11:14.978Z,29.37
2019-05-02T13:13:47.238Z,28.82
2019-05-02T13:16:22.560Z,29.07
2019-05-02T13:18:57.262Z,29.42
2019-05-02T13:21:42.226Z,28.74
2019-05-02T13:24:16.597Z,29.50
2019-05-02T13:26:52.027Z,29.26
2019-05-02T13:29:23.312Z,29.19
2019-05-02T13:32:08.692Z,29.34
2019-05-02T13:34:48.332Z,28.95
2019-05-02T13:37:19.566Z,29.06
2019-05-02T13:40:17.183Z,29.50
2019-05-02T13:42:52.199Z,29.72
2019-05-02T13:45:45.766Z,29.93
2019-05-02T13:48:21.800Z,29.58
2019-05-02T13:50:53.878Z,29.30
2019-05-02T13:53:26.141Z,28.62
2019-05-02T13:56:17.002Z,29.22
2019-05-02T13:58:48.944Z,28.68
2019-05-02T14:01:22.391Z,28.60
2019-05-02T14:03:55.853Z,29.77
2019-05-02T14:06:29.810Z,29.31
2019-05-02T14:09:40.315Z,29.30
2019-05-02T14:12:37.454Z,29.32
2019-05-02T14:15:13.663Z,29.51
2019-05-02T14:17:45.311Z,30.32
2019-05-02T14:20:22.344Z,30.06
2019-05-02T14:22:54.721Z,29.99
2019-05-02T14:25:28.176Z,29.63
2019-05-02T14:28:00.161Z,29.82
2019-05-02T14:30:39.315Z,29.42
2019-05-02T14:33:12.146Z,28.91
2019-05-02T14:35:46.010Z,29.48
2019-05-02T14:38:18.249Z,28.87
2019-05-02T14:41:13.397Z,29.05
2019-05-02T14:43:52.623Z,28.63
2019-05-02T14:46:34.313Z,29.24
2019-05-02T14:49:02.714Z,29.24
2019-05-02T14:51:36.760Z,29.27
2019-05-02T14:54:17.096Z,29.36
2019-05-02T14:56:57.249Z,29.59
2019-05-02T14:59:29.477Z,29.59
2019-05-02T15:02:07.392Z,30.45
2019-05-02T15:04:44.387Z,30.45
2019-05-02T15:07:17.687Z,29.75
2019-05-02T15:09:48.123Z,29.80
2019-05-02T15:12:37.833Z,29.56
2019-05-02T15:15:12.293Z,29.46
2019-05-02T15:17:44.645Z,29.49
2019-05-02T15:20:19.814Z,28.94
2019-05-02T15:22:53.495Z,29.34
2019-05-02T15:25:25.750Z,29.12
2019-05-02T15:27:59.959Z,29.24
2019-05-02T15:30:37.288Z,29.37
2019-05-02T15:33:12.401Z,28.68
2019-05-02T15:36:05.727Z,28.32
2019-05-02T15:38:37.353Z,28.59
2019-05-02T15:41:10.438Z,29.14
2019-05-02T15:43:44.615Z,28.81
2019-05-02T15:46:23.634Z,28.88
2019-05-02T15:48:51.979Z,29.12
2019-05-02T15:51:25.889Z,29.35
2019-05-02T15:54:08.485Z,29.44
2019-05-02T15:57:00.149Z,28.13
2019-05-02T15:59:42.267Z,28.13
2019-05-02T16:02:13.110Z,28.45
2019-05-02T16:04:46.921Z,28.45
2019-05-02T16:07:22.356Z,28.35
2019-05-02T16:09:59.379Z,28.87
2019-05-02T16:12:32.173Z,28.78
2019-05-02T16:15:02.442Z,28.77
2019-05-02T16:17:36.822Z,28.49
2019-05-02T16:20:17.134Z,28.42
2019-05-02T16:22:52.313Z,28.07
2019-05-02T16:25:24.601Z,28.16
2019-05-02T16:28:02.665Z,28.26
2019-05-02T16:30:32.418Z,28.15
2019-05-02T16:33:07.977Z,28.39
2019-05-02T16:35:38.482Z,28.42
2019-05-02T16:38:12.267Z,27.77
2019-05-02T16:40:46.411Z,27.32
2019-05-02T16:43:18.364Z,27.45
2019-05-02T16:45:53.264Z,27.46
2019-05-02T16:48:30.600Z,27.66
2019-05-02T16:51:02.184Z,27.66
2019-05-02T16:53:36.178Z,25.94
2019-05-02T16:56:08.138Z,25.94
2019-05-02T16:58:43.388Z,26.02
2019-05-02T17:01:24.635Z,26.07
2019-05-02T17:03:57.668Z,26.10
2019-05-02T17:06:29.381Z,25.63
2019-05-02T17:09:28.713Z,25.61
2019-05-02T17:12:01.903Z,26.27
2019-05-02T17:14:33.982Z,25.61
2019-05-02T17:17:07.855Z,25.61
2019-05-02T17:19:39.811Z,25.61
2019-05-02T17:22:12.162Z,26.26
2019-05-02T17:24:44.604Z,26.60
2019-05-02T17:27:20.596Z,26.34
2019-05-02T17:29:52.491Z,26.34
2019-05-02T17:32:24.505Z,26.22
2019-05-02T17:35:02.620Z,25.69
2019-05-02T17:37:32.567Z,26.01
2019-05-02T17:40:05.612Z,26.25
2019-05-02T17:42:37.676Z,26.34
2019-05-02T17:45:10.447Z,26.73
2019-05-02T17:47:42.579Z,26.87
2019-05-02T17:50:28.761Z,27.12
2019-05-02T17:53:02.997Z,27.15
2019-05-02T17:55:40.370Z,27.89
2019-05-02T17:58:14.141Z,27.07
2019-05-02T18:00:47.357Z,27.54
2019-05-02T18:03:30.757Z,28.06
2019-05-02T18:05:57.480Z,28.99
2019-05-02T18:08:29.602Z,28.74
2019-05-02T18:11:02.765Z,28.99
2019-05-02T18:13:35.638Z,29.03
2019-05-02T18:16:15.010Z,28.95
2019-05-02T18:18:45.085Z,28.92
2019-05-02T18:21:24.932Z,28.38
2019-05-02T18:23:57.248Z,28.61
2019-05-02T18:26:27.400Z,29.25
2019-05-02T18:29:02.765Z,29.07
2019-05-02T18:31:39.629Z,29.33
2019-05-02T18:34:14.445Z,30.25
2019-05-02T18:36:44.613Z,31.01
2019-05-02T18:39:16.665Z,31.13
2019-05-02T18:41:51.972Z,31.36
2019-05-02T18:44:24.443Z,31.83
2019-05-02T18:46:57.973Z,31.95
2019-05-02T18:49:32.127Z,32.22
2019-05-02T18:52:04.662Z,32.11
2019-05-02T18:54:38.566Z,35.15
2019-05-02T18:57:17.082Z,36.21
2019-05-02T18:59:51.962Z,37.42
2019-05-02T19:02:26.405Z,38.19
2019-05-02T19:04:56.924Z,38.61
2019-05-02T19:07:33.188Z,39.47
2019-05-02T19:10:07.135Z,39.67
2019-05-02T19:12:39.324Z,39.65
2019-05-02T19:15:12.054Z,40.28
2019-05-02T19:17:49.453Z,41.04
2019-05-02T19:21:07.420Z,41.19
2019-05-02T19:23:39.944Z,41.93
2019-05-02T19:26:15.469Z,42.31
2019-05-02T19:28:53.468Z,42.77
2019-05-02T19:31:44.377Z,43.06
2019-05-02T19:34:16.754Z,43.47
2019-05-02T19:36:48.214Z,44.36
2019-05-02T19:39:23.925Z,45.17
2019-05-02T19:41:54.885Z,45.54
2019-05-02T19:44:29.454Z,46.14
2019-05-02T19:47:02.539Z,46.67
2019-05-02T19:49:34.797Z,47.09
2019-05-02T19:52:10.031Z,47.96
2019-05-02T19:54:43.645Z,49.06
2019-05-02T19:57:17.144Z,49.77
2019-05-02T19:59:52.409Z,50.10
2019-05-02T20:02:24.618Z,50.48
2019-05-02T20:04:57.169Z,50.44
2019-05-02T20:07:29.451Z,50.64
2019-05-02T20:10:01.951Z,50.45
2019-05-02T20:12:34.484Z,51.04
2019-05-02T20:15:09.040Z,51.02
2019-05-02T20:17:42.302Z,51.18
2019-05-02T20:21:12.213Z,51.63
2019-05-02T20:23:44.193Z,51.83
2019-05-02T20:26:17.133Z,52.49
2019-05-02T20:28:49.418Z,52.93
2019-05-02T20:31:22.044Z,52.97
2019-05-02T20:33:57.487Z,53.61
2019-05-02T20:36:29.696Z,53.85
2019-05-02T20:39:02.596Z,53.88
2019-05-02T20:41:36.357Z,54.87
2019-05-02T20:44:12.025Z,55.57
2019-05-02T20:46:44.337Z,54.85
2019-05-02T20:49:17.998Z,54.58
2019-05-02T20:51:51.809Z,54.73
2019-05-02T20:54:24.696Z,54.68
2019-05-02T20:56:57.306Z,54.94
2019-05-02T20:59:32.290Z,54.44
2019-05-02T21:02:04.797Z,54.44
2019-05-02T21:04:37.929Z,54.35
2019-05-02T21:07:38.288Z,54.63
2019-05-02T21:10:19.141Z,54.41
2019-05-02T21:12:52.594Z,54.65
2019-05-02T21:15:25.174Z,54.99
2019-05-02T21:17:57.384Z,55.18
2019-05-02T21:20:47.172Z,54.38
2019-05-02T21:23:43.397Z,54.12
2019-05-02T21:26:21.646Z,55.19
2019-05-02T21:29:06.843Z,57.00
2019-05-02T21:31:47.559Z,58.03
2019-05-02T21:34:31.703Z,59.02
2019-05-02T21:37:16.884Z,59.53
2019-05-02T21:40:02.753Z,59.52
2019-05-02T21:42:53.986Z,59.23
2019-05-02T21:45:37.672Z,58.68
2019-05-02T21:48:27.207Z,58.89
2019-05-02T21:51:19.940Z,60.21
2019-05-02T21:54:22.592Z,61.36
2019-05-02T21:57:19.082Z,61.77
2019-05-02T22:00:04.149Z,62.22
2019-05-02T22:02:45.844Z,62.46
2019-05-02T22:05:28.302Z,62.10
2019-05-02T22:08:12.162Z,62.29
2019-05-02T22:10:59.118Z,63.33
2019-05-02T22:13:55.736Z,63.76
2019-05-02T22:16:43.456Z,64.43
2019-05-02T22:19:21.985Z,64.85
2019-05-02T22:22:01.637Z,65.11
2019-05-02T22:24:45.006Z,64.90
2019-05-02T22:27:24.598Z,65.24
2019-05-02T22:30:12.399Z,65.49
2019-05-02T22:32:54.229Z,65.61
2019-05-02T22:35:30.208Z,65.68
2019-05-02T22:38:22.646Z,65.72
2019-05-02T22:41:12.149Z,65.79
2019-05-02T22:43:54.525Z,65.92
2019-05-02T22:46:47.354Z,66.18
2019-05-02T22:49:32.026Z,66.66
2019-05-02T22:52:14.344Z,66.52
2019-05-02T22:55:05.248Z,66.77
2019-05-02T22:57:58.924Z,67.08
2019-05-02T23:00:36.023Z,67.59
2019-05-02T23:03:12.636Z,67.30
2019-05-02T23:05:44.766Z,67.58
2019-05-02T23:08:18.090Z,67.71
2019-05-02T23:10:51.956Z,68.44
2019-05-02T23:13:27.498Z,68.66
2019-05-02T23:16:00.508Z,68.54
2019-05-02T23:18:33.214Z,69.50
2019-05-02T23:21:05.497Z,70.38
2019-05-02T23:23:41.721Z,71.00
2019-05-02T23:26:18.848Z,71.27
2019-05-02T23:28:52.829Z,72.18
2019-05-02T23:31:25.411Z,73.12
2019-05-02T23:34:02.117Z,73.73
2019-05-02T23:36:35.095Z,74.15
2019-05-02T23:39:12.427Z,74.58
2019-05-02T23:41:44.705Z,74.88
2019-05-02T23:44:16.836Z,75.04
2019-05-02T23:46:48.990Z,74.96
2019-05-02T23:49:24.497Z,75.08
2019-05-02T23:51:56.873Z,75.19
2019-05-02T23:54:28.970Z,75.87
2019-05-02T23:57:01.997Z,76.10
2019-05-02T23:59:34.475Z,76.94
